sensor_id;sensor_type;location;lat;lon;timestamp;temperature;humidity
32502;DHT22;18952;52.516;13.460;2023-09-08T00:01:50;20.20;98.60
32502;DHT22;18952;52.516;13.460;2023-09-08T00:04:17;20.10;99.00
32502;DHT22;18952;52.516;13.460;2023-09-08T00:06:44;20.00;99.20
32502;DHT22;18952;52.516;13.460;2023-09-08T00:09:10;20.00;99.50
32502;DHT22;18952;52.516;13.460;2023-09-08T00:11:37;20.00;99.90
32502;DHT22;18952;52.516;13.460;2023-09-08T00:14:04;20.00;99.90
32502;DHT22;18952;52.516;13.460;2023-09-08T00:16:31;20.00;99.90
32502;DHT22;18952;52.516;13.460;2023-09-08T00:18:58;19.90;99.90
32502;DHT22;18952;52.516;13.460;2023-09-08T00:21:25;19.90;99.90
32502;DHT22;18952;52.516;13.460;2023-09-08T00:23:52;19.90;99.90
32502;DHT22;18952;52.516;13.460;2023-09-08T00:26:19;19.80;99.90
32502;DHT22;18952;52.516;13.460;2023-09-08T00:28:47;19.80;99.90
32502;DHT22;18952;52.516;13.460;2023-09-08T00:31:14;19.80;99.90
32502;DHT22;18952;52.516;13.460;2023-09-08T00:33:41;19.70;99.90
32502;DHT22;18952;52.516;13.460;2023-09-08T00:36:08;19.70;99.90
32502;DHT22;18952;52.516;13.460;2023-09-08T00:38:34;19.70;99.90
32502;DHT22;18952;52.516;13.460;2023-09-08T00:41:02;19.70;99.90
32502;DHT22;18952;52.516;13.460;2023-09-08T00:43:29;19.70;99.90
32502;DHT22;18952;52.516;13.460;2023-09-08T00:45:56;19.70;99.90
32502;DHT22;18952;52.516;13.460;2023-09-08T00:48:23;19.60;99.90
32502;DHT22;18952;52.516;13.460;2023-09-08T00:50:50;19.50;99.90
32502;DHT22;18952;52.516;13.460;2023-09-08T00:53:17;19.50;99.90
32502;DHT22;18952;52.516;13.460;2023-09-08T00:55:45;19.50;99.90
32502;DHT22;18952;52.516;13.460;2023-09-08T00:58:12;19.50;99.90
32502;DHT22;18952;52.516;13.460;2023-09-08T01:00:38;19.50;99.90
32502;DHT22;18952;52.516;13.460;2023-09-08T01:03:05;19.40;99.90
32502;DHT22;18952;52.516;13.460;2023-09-08T01:05:32;19.40;99.90
32502;DHT22;18952;52.516;13.460;2023-09-08T01:07:59;19.40;99.90
32502;DHT22;18952;52.516;13.460;2023-09-08T01:10:27;19.30;99.90
32502;DHT22;18952;52.516;13.460;2023-09-08T01:12:54;19.30;99.90
32502;DHT22;18952;52.516;13.460;2023-09-08T01:15:20;19.20;99.90
32502;DHT22;18952;52.516;13.460;2023-09-08T01:17:47;19.20;99.90
32502;DHT22;18952;52.516;13.460;2023-09-08T01:20:20;19.20;99.90
32502;DHT22;18952;52.516;13.460;2023-09-08T01:26:12;19.20;99.90
32502;DHT22;18952;52.516;13.460;2023-09-08T01:28:42;19.10;99.90
32502;DHT22;18952;52.516;13.460;2023-09-08T01:31:11;19.10;99.90
32502;DHT22;18952;52.516;13.460;2023-09-08T01:33:38;19.10;99.90
32502;DHT22;18952;52.516;13.460;2023-09-08T01:36:05;19.00;99.90
32502;DHT22;18952;52.516;13.460;2023-09-08T01:38:32;19.00;99.90
32502;DHT22;18952;52.516;13.460;2023-09-08T01:40:59;19.00;99.90
32502;DHT22;18952;52.516;13.460;2023-09-08T01:43:26;19.10;99.90
32502;DHT22;18952;52.516;13.460;2023-09-08T01:45:53;19.00;99.90
32502;DHT22;18952;52.516;13.460;2023-09-08T01:48:20;19.00;99.90
32502;DHT22;18952;52.516;13.460;2023-09-08T01:50:47;19.00;99.90
32502;DHT22;18952;52.516;13.460;2023-09-08T01:53:14;19.00;99.90
32502;DHT22;18952;52.516;13.460;2023-09-08T01:55:40;19.00;99.90
32502;DHT22;18952;52.516;13.460;2023-09-08T01:58:07;19.00;99.90
32502;DHT22;18952;52.516;13.460;2023-09-08T02:00:34;19.00;99.90
32502;DHT22;18952;52.516;13.460;2023-09-08T02:03:01;19.00;99.90
32502;DHT22;18952;52.516;13.460;2023-09-08T02:05:27;18.90;99.90
32502;DHT22;18952;52.516;13.460;2023-09-08T02:07:54;18.90;99.90
32502;DHT22;18952;52.516;13.460;2023-09-08T02:10:21;18.90;99.90
32502;DHT22;18952;52.516;13.460;2023-09-08T02:12:48;18.90;99.90
32502;DHT22;18952;52.516;13.460;2023-09-08T02:15:15;18.90;99.90
32502;DHT22;18952;52.516;13.460;2023-09-08T02:17:41;18.90;99.90
32502;DHT22;18952;52.516;13.460;2023-09-08T02:20:09;18.90;99.90
32502;DHT22;18952;52.516;13.460;2023-09-08T02:22:35;18.90;99.90
32502;DHT22;18952;52.516;13.460;2023-09-08T02:25:02;18.90;99.90
32502;DHT22;18952;52.516;13.460;2023-09-08T02:27:29;18.90;99.90
32502;DHT22;18952;52.516;13.460;2023-09-08T02:29:56;18.90;99.90
32502;DHT22;18952;52.516;13.460;2023-09-08T02:32:23;18.80;99.90
32502;DHT22;18952;52.516;13.460;2023-09-08T02:34:50;18.90;99.90
32502;DHT22;18952;52.516;13.460;2023-09-08T02:37:16;18.80;99.90
32502;DHT22;18952;52.516;13.460;2023-09-08T02:39:43;18.80;99.90
32502;DHT22;18952;52.516;13.460;2023-09-08T02:42:10;18.80;99.90
32502;DHT22;18952;52.516;13.460;2023-09-08T02:44:37;18.80;99.90
32502;DHT22;18952;52.516;13.460;2023-09-08T02:47:04;18.80;99.90
32502;DHT22;18952;52.516;13.460;2023-09-08T02:49:30;18.80;99.90
32502;DHT22;18952;52.516;13.460;2023-09-08T02:51:57;18.80;99.90
32502;DHT22;18952;52.516;13.460;2023-09-08T02:54:24;18.70;99.90
32502;DHT22;18952;52.516;13.460;2023-09-08T02:56:51;18.70;99.90
32502;DHT22;18952;52.516;13.460;2023-09-08T02:59:18;18.70;99.90
32502;DHT22;18952;52.516;13.460;2023-09-08T03:01:47;18.60;99.90
32502;DHT22;18952;52.516;13.460;2023-09-08T03:04:14;18.60;99.90
32502;DHT22;18952;52.516;13.460;2023-09-08T03:06:41;18.60;99.90
32502;DHT22;18952;52.516;13.460;2023-09-08T03:09:08;18.50;99.90
32502;DHT22;18952;52.516;13.460;2023-09-08T03:11:35;18.50;99.90
32502;DHT22;18952;52.516;13.460;2023-09-08T03:14:02;18.50;99.90
32502;DHT22;18952;52.516;13.460;2023-09-08T03:16:29;18.50;99.90
32502;DHT22;18952;52.516;13.460;2023-09-08T03:18:55;18.50;99.90
32502;DHT22;18952;52.516;13.460;2023-09-08T03:21:23;18.50;99.90
32502;DHT22;18952;52.516;13.460;2023-09-08T03:23:50;18.40;99.90
32502;DHT22;18952;52.516;13.460;2023-09-08T03:26:16;18.40;99.90
32502;DHT22;18952;52.516;13.460;2023-09-08T03:28:43;18.40;99.90
32502;DHT22;18952;52.516;13.460;2023-09-08T03:31:10;18.40;99.90
32502;DHT22;18952;52.516;13.460;2023-09-08T03:33:37;18.30;99.90
32502;DHT22;18952;52.516;13.460;2023-09-08T03:36:04;18.30;99.90
32502;DHT22;18952;52.516;13.460;2023-09-08T03:38:31;18.30;99.90
32502;DHT22;18952;52.516;13.460;2023-09-08T03:40:58;18.30;99.90
32502;DHT22;18952;52.516;13.460;2023-09-08T03:43:25;18.30;99.90
32502;DHT22;18952;52.516;13.460;2023-09-08T03:45:52;18.30;99.90
32502;DHT22;18952;52.516;13.460;2023-09-08T03:48:19;18.20;99.90
32502;DHT22;18952;52.516;13.460;2023-09-08T03:50:46;18.20;99.90
32502;DHT22;18952;52.516;13.460;2023-09-08T03:53:13;18.20;99.90
32502;DHT22;18952;52.516;13.460;2023-09-08T03:55:40;18.20;99.90
32502;DHT22;18952;52.516;13.460;2023-09-08T03:58:07;18.20;99.90
32502;DHT22;18952;52.516;13.460;2023-09-08T04:00:34;18.10;99.90
32502;DHT22;18952;52.516;13.460;2023-09-08T04:03:01;18.10;99.90
32502;DHT22;18952;52.516;13.460;2023-09-08T04:05:28;18.10;99.90
32502;DHT22;18952;52.516;13.460;2023-09-08T04:07:55;18.10;99.90
32502;DHT22;18952;52.516;13.460;2023-09-08T04:10:22;18.00;99.90
32502;DHT22;18952;52.516;13.460;2023-09-08T04:12:49;18.00;99.90
32502;DHT22;18952;52.516;13.460;2023-09-08T04:15:16;18.00;99.90
32502;DHT22;18952;52.516;13.460;2023-09-08T04:17:42;18.00;99.90
32502;DHT22;18952;52.516;13.460;2023-09-08T04:20:10;17.90;99.90
32502;DHT22;18952;52.516;13.460;2023-09-08T04:22:37;17.90;99.90
32502;DHT22;18952;52.516;13.460;2023-09-08T04:25:04;17.90;99.90
32502;DHT22;18952;52.516;13.460;2023-09-08T04:27:31;17.90;99.90
32502;DHT22;18952;52.516;13.460;2023-09-08T04:29:58;17.90;99.90
32502;DHT22;18952;52.516;13.460;2023-09-08T04:32:25;17.80;99.90
32502;DHT22;18952;52.516;13.460;2023-09-08T04:34:52;17.80;99.90
32502;DHT22;18952;52.516;13.460;2023-09-08T04:37:18;17.80;99.90
32502;DHT22;18952;52.516;13.460;2023-09-08T04:39:45;17.80;99.90
32502;DHT22;18952;52.516;13.460;2023-09-08T04:42:12;17.70;99.90
32502;DHT22;18952;52.516;13.460;2023-09-08T04:44:39;17.80;99.90
32502;DHT22;18952;52.516;13.460;2023-09-08T04:47:06;17.70;99.90
32502;DHT22;18952;52.516;13.460;2023-09-08T04:49:33;17.70;99.90
32502;DHT22;18952;52.516;13.460;2023-09-08T04:51:59;17.70;99.90
32502;DHT22;18952;52.516;13.460;2023-09-08T04:54:26;17.70;99.90
32502;DHT22;18952;52.516;13.460;2023-09-08T04:56:54;17.70;99.90
32502;DHT22;18952;52.516;13.460;2023-09-08T04:59:38;17.70;99.90
32502;DHT22;18952;52.516;13.460;2023-09-08T05:02:06;17.70;99.90
32502;DHT22;18952;52.516;13.460;2023-09-08T05:04:32;17.60;99.90
32502;DHT22;18952;52.516;13.460;2023-09-08T05:06:59;17.60;99.90
32502;DHT22;18952;52.516;13.460;2023-09-08T05:09:26;17.60;99.90
32502;DHT22;18952;52.516;13.460;2023-09-08T05:11:53;17.60;99.90
32502;DHT22;18952;52.516;13.460;2023-09-08T05:14:20;17.60;99.90
32502;DHT22;18952;52.516;13.460;2023-09-08T05:16:47;17.60;99.90
32502;DHT22;18952;52.516;13.460;2023-09-08T05:19:13;17.70;99.90
32502;DHT22;18952;52.516;13.460;2023-09-08T05:21:40;17.70;99.90
32502;DHT22;18952;52.516;13.460;2023-09-08T05:24:07;17.70;99.90
32502;DHT22;18952;52.516;13.460;2023-09-08T05:26:36;17.70;99.90
32502;DHT22;18952;52.516;13.460;2023-09-08T05:29:04;17.70;99.90
32502;DHT22;18952;52.516;13.460;2023-09-08T05:31:31;17.70;99.90
32502;DHT22;18952;52.516;13.460;2023-09-08T05:33:57;17.70;99.90
32502;DHT22;18952;52.516;13.460;2023-09-08T05:36:24;17.80;99.90
32502;DHT22;18952;52.516;13.460;2023-09-08T05:38:51;17.80;99.90
32502;DHT22;18952;52.516;13.460;2023-09-08T05:41:18;17.90;99.90
32502;DHT22;18952;52.516;13.460;2023-09-08T05:43:45;17.90;99.90
32502;DHT22;18952;52.516;13.460;2023-09-08T05:46:11;17.90;99.90
32502;DHT22;18952;52.516;13.460;2023-09-08T05:48:39;17.90;99.90
32502;DHT22;18952;52.516;13.460;2023-09-08T05:51:05;17.90;99.90
32502;DHT22;18952;52.516;13.460;2023-09-08T05:53:33;17.90;99.90
32502;DHT22;18952;52.516;13.460;2023-09-08T05:56:00;17.90;99.90
32502;DHT22;18952;52.516;13.460;2023-09-08T05:58:26;18.00;99.90
32502;DHT22;18952;52.516;13.460;2023-09-08T06:00:54;18.00;99.90
32502;DHT22;18952;52.516;13.460;2023-09-08T06:03:21;18.00;99.90
32502;DHT22;18952;52.516;13.460;2023-09-08T06:05:48;17.90;99.90
32502;DHT22;18952;52.516;13.460;2023-09-08T06:08:15;18.00;99.90
32502;DHT22;18952;52.516;13.460;2023-09-08T06:10:42;18.00;99.90
32502;DHT22;18952;52.516;13.460;2023-09-08T06:13:08;18.00;99.90
32502;DHT22;18952;52.516;13.460;2023-09-08T06:15:35;18.00;99.90
32502;DHT22;18952;52.516;13.460;2023-09-08T06:18:02;18.00;99.90
32502;DHT22;18952;52.516;13.460;2023-09-08T06:20:29;18.00;99.90
32502;DHT22;18952;52.516;13.460;2023-09-08T06:22:56;18.00;99.90
32502;DHT22;18952;52.516;13.460;2023-09-08T06:25:23;18.10;99.90
32502;DHT22;18952;52.516;13.460;2023-09-08T06:27:50;18.00;99.90
32502;DHT22;18952;52.516;13.460;2023-09-08T06:30:17;18.00;99.90
32502;DHT22;18952;52.516;13.460;2023-09-08T06:32:44;18.10;99.90
32502;DHT22;18952;52.516;13.460;2023-09-08T06:35:11;18.10;99.90
32502;DHT22;18952;52.516;13.460;2023-09-08T06:37:38;18.10;99.90
32502;DHT22;18952;52.516;13.460;2023-09-08T06:40:06;18.20;99.90
32502;DHT22;18952;52.516;13.460;2023-09-08T06:42:33;18.20;99.90
32502;DHT22;18952;52.516;13.460;2023-09-08T06:45:00;18.20;99.90
32502;DHT22;18952;52.516;13.460;2023-09-08T06:47:27;18.30;99.90
32502;DHT22;18952;52.516;13.460;2023-09-08T06:49:53;18.30;99.90
32502;DHT22;18952;52.516;13.460;2023-09-08T06:52:20;18.40;99.90
32502;DHT22;18952;52.516;13.460;2023-09-08T06:54:47;18.40;99.90
32502;DHT22;18952;52.516;13.460;2023-09-08T06:57:14;18.40;99.90
32502;DHT22;18952;52.516;13.460;2023-09-08T06:59:41;18.40;99.90
32502;DHT22;18952;52.516;13.460;2023-09-08T07:02:08;18.50;99.90
32502;DHT22;18952;52.516;13.460;2023-09-08T07:04:35;18.50;99.90
32502;DHT22;18952;52.516;13.460;2023-09-08T07:07:02;18.60;99.90
32502;DHT22;18952;52.516;13.460;2023-09-08T07:09:29;18.60;99.90
32502;DHT22;18952;52.516;13.460;2023-09-08T07:11:56;18.70;99.90
32502;DHT22;18952;52.516;13.460;2023-09-08T07:14:23;18.70;99.90
32502;DHT22;18952;52.516;13.460;2023-09-08T07:16:50;18.70;99.90
32502;DHT22;18952;52.516;13.460;2023-09-08T07:19:18;18.80;99.90
32502;DHT22;18952;52.516;13.460;2023-09-08T07:21:45;18.80;99.90
32502;DHT22;18952;52.516;13.460;2023-09-08T07:24:11;18.90;99.90
32502;DHT22;18952;52.516;13.460;2023-09-08T07:26:38;19.00;99.90
32502;DHT22;18952;52.516;13.460;2023-09-08T07:29:05;19.00;99.90
32502;DHT22;18952;52.516;13.460;2023-09-08T07:31:32;19.00;99.90
32502;DHT22;18952;52.516;13.460;2023-09-08T07:33:59;19.10;99.90
32502;DHT22;18952;52.516;13.460;2023-09-08T07:36:25;19.10;99.90
32502;DHT22;18952;52.516;13.460;2023-09-08T07:38:53;19.10;99.90
32502;DHT22;18952;52.516;13.460;2023-09-08T07:41:20;19.10;99.90
32502;DHT22;18952;52.516;13.460;2023-09-08T07:43:47;19.20;99.90
32502;DHT22;18952;52.516;13.460;2023-09-08T07:46:13;19.30;99.90
32502;DHT22;18952;52.516;13.460;2023-09-08T07:48:40;19.40;99.90
32502;DHT22;18952;52.516;13.460;2023-09-08T07:51:08;19.40;99.90
32502;DHT22;18952;52.516;13.460;2023-09-08T07:53:35;19.50;99.90
32502;DHT22;18952;52.516;13.460;2023-09-08T07:56:02;19.50;99.90
32502;DHT22;18952;52.516;13.460;2023-09-08T07:58:29;19.60;99.90
32502;DHT22;18952;52.516;13.460;2023-09-08T08:00:56;19.60;99.90
32502;DHT22;18952;52.516;13.460;2023-09-08T08:03:23;19.60;99.90
32502;DHT22;18952;52.516;13.460;2023-09-08T08:05:50;19.70;99.90
32502;DHT22;18952;52.516;13.460;2023-09-08T08:08:17;19.80;99.90
32502;DHT22;18952;52.516;13.460;2023-09-08T08:10:44;19.80;99.90
32502;DHT22;18952;52.516;13.460;2023-09-08T08:13:11;19.90;99.90
32502;DHT22;18952;52.516;13.460;2023-09-08T08:15:39;20.00;99.90
32502;DHT22;18952;52.516;13.460;2023-09-08T08:18:06;20.00;99.90
32502;DHT22;18952;52.516;13.460;2023-09-08T08:20:34;20.10;99.90
32502;DHT22;18952;52.516;13.460;2023-09-08T08:23:05;20.20;99.90
32502;DHT22;18952;52.516;13.460;2023-09-08T08:25:32;20.30;99.90
32502;DHT22;18952;52.516;13.460;2023-09-08T08:28:00;20.30;99.90
32502;DHT22;18952;52.516;13.460;2023-09-08T08:30:27;20.40;99.90
32502;DHT22;18952;52.516;13.460;2023-09-08T08:32:54;20.40;99.90
32502;DHT22;18952;52.516;13.460;2023-09-08T08:35:21;20.50;99.90
32502;DHT22;18952;52.516;13.460;2023-09-08T08:37:48;20.60;99.90
32502;DHT22;18952;52.516;13.460;2023-09-08T08:40:15;20.60;99.90
32502;DHT22;18952;52.516;13.460;2023-09-08T08:42:42;20.70;99.90
32502;DHT22;18952;52.516;13.460;2023-09-08T08:45:09;20.70;99.90
32502;DHT22;18952;52.516;13.460;2023-09-08T08:47:36;20.80;99.90
32502;DHT22;18952;52.516;13.460;2023-09-08T08:50:05;20.80;99.90
32502;DHT22;18952;52.516;13.460;2023-09-08T08:52:34;20.90;99.90
32502;DHT22;18952;52.516;13.460;2023-09-08T08:55:02;21.00;99.90
32502;DHT22;18952;52.516;13.460;2023-09-08T08:57:29;21.00;99.90
32502;DHT22;18952;52.516;13.460;2023-09-08T08:59:55;21.00;99.90
32502;DHT22;18952;52.516;13.460;2023-09-08T09:02:25;21.10;99.90
32502;DHT22;18952;52.516;13.460;2023-09-08T09:04:54;21.20;99.90
32502;DHT22;18952;52.516;13.460;2023-09-08T09:07:21;21.30;99.90
32502;DHT22;18952;52.516;13.460;2023-09-08T09:09:51;21.30;99.90
32502;DHT22;18952;52.516;13.460;2023-09-08T09:12:18;21.40;99.90
32502;DHT22;18952;52.516;13.460;2023-09-08T09:14:46;21.50;99.90
32502;DHT22;18952;52.516;13.460;2023-09-08T09:17:14;21.60;99.90
32502;DHT22;18952;52.516;13.460;2023-09-08T09:19:41;21.70;99.90
32502;DHT22;18952;52.516;13.460;2023-09-08T09:22:08;21.70;99.90
32502;DHT22;18952;52.516;13.460;2023-09-08T09:24:38;21.80;99.90
32502;DHT22;18952;52.516;13.460;2023-09-08T09:27:05;21.90;99.90
32502;DHT22;18952;52.516;13.460;2023-09-08T09:29:34;22.00;99.90
32502;DHT22;18952;52.516;13.460;2023-09-08T09:32:10;22.00;99.90
32502;DHT22;18952;52.516;13.460;2023-09-08T09:34:51;22.20;99.90
32502;DHT22;18952;52.516;13.460;2023-09-08T09:37:18;22.20;99.90
32502;DHT22;18952;52.516;13.460;2023-09-08T09:39:52;22.30;99.90
32502;DHT22;18952;52.516;13.460;2023-09-08T09:42:21;22.30;99.90
32502;DHT22;18952;52.516;13.460;2023-09-08T09:44:48;22.40;99.90
32502;DHT22;18952;52.516;13.460;2023-09-08T09:47:16;22.40;99.90
32502;DHT22;18952;52.516;13.460;2023-09-08T09:49:47;22.50;99.90
32502;DHT22;18952;52.516;13.460;2023-09-08T09:52:21;22.60;99.90
32502;DHT22;18952;52.516;13.460;2023-09-08T09:54:48;22.60;99.90
32502;DHT22;18952;52.516;13.460;2023-09-08T09:57:19;22.70;99.90
32502;DHT22;18952;52.516;13.460;2023-09-08T09:59:46;22.70;99.90
32502;DHT22;18952;52.516;13.460;2023-09-08T10:02:14;22.80;99.90
32502;DHT22;18952;52.516;13.460;2023-09-08T10:04:41;22.80;99.90
32502;DHT22;18952;52.516;13.460;2023-09-08T10:07:09;22.90;99.90
32502;DHT22;18952;52.516;13.460;2023-09-08T10:09:36;22.90;99.90
32502;DHT22;18952;52.516;13.460;2023-09-08T10:12:05;22.90;99.90
32502;DHT22;18952;52.516;13.460;2023-09-08T10:14:35;23.00;99.90
32502;DHT22;18952;52.516;13.460;2023-09-08T10:17:03;23.00;99.90
32502;DHT22;18952;52.516;13.460;2023-09-08T10:19:33;23.10;99.90
32502;DHT22;18952;52.516;13.460;2023-09-08T10:22:00;23.10;99.90
32502;DHT22;18952;52.516;13.460;2023-09-08T10:24:34;23.20;99.90
32502;DHT22;18952;52.516;13.460;2023-09-08T10:27:11;23.20;99.90
32502;DHT22;18952;52.516;13.460;2023-09-08T10:29:39;23.30;99.90
32502;DHT22;18952;52.516;13.460;2023-09-08T10:32:07;23.40;99.90
32502;DHT22;18952;52.516;13.460;2023-09-08T10:34:35;23.40;99.90
32502;DHT22;18952;52.516;13.460;2023-09-08T10:37:03;23.40;99.90
32502;DHT22;18952;52.516;13.460;2023-09-08T10:39:34;23.40;99.90
32502;DHT22;18952;52.516;13.460;2023-09-08T10:44:44;23.50;99.90
32502;DHT22;18952;52.516;13.460;2023-09-08T10:47:11;23.60;99.90
32502;DHT22;18952;52.516;13.460;2023-09-08T10:49:38;23.60;99.90
32502;DHT22;18952;52.516;13.460;2023-09-08T10:52:09;23.60;99.90
32502;DHT22;18952;52.516;13.460;2023-09-08T10:54:49;23.70;99.90
32502;DHT22;18952;52.516;13.460;2023-09-08T10:57:21;23.70;99.90
32502;DHT22;18952;52.516;13.460;2023-09-08T11:02:48;23.70;99.90
32502;DHT22;18952;52.516;13.460;2023-09-08T11:05:16;23.70;99.90
32502;DHT22;18952;52.516;13.460;2023-09-08T11:07:44;23.80;99.90
32502;DHT22;18952;52.516;13.460;2023-09-08T11:10:12;23.80;99.90
32502;DHT22;18952;52.516;13.460;2023-09-08T11:12:39;23.90;99.90
32502;DHT22;18952;52.516;13.460;2023-09-08T11:15:07;23.90;99.90
32502;DHT22;18952;52.516;13.460;2023-09-08T11:17:36;24.00;99.90
32502;DHT22;18952;52.516;13.460;2023-09-08T11:20:03;24.00;99.90
32502;DHT22;18952;52.516;13.460;2023-09-08T11:22:30;24.10;99.90
32502;DHT22;18952;52.516;13.460;2023-09-08T11:24:57;24.10;99.90
32502;DHT22;18952;52.516;13.460;2023-09-08T11:27:24;24.20;99.90
32502;DHT22;18952;52.516;13.460;2023-09-08T11:29:51;24.20;99.90
32502;DHT22;18952;52.516;13.460;2023-09-08T11:32:18;24.30;99.90
32502;DHT22;18952;52.516;13.460;2023-09-08T11:34:44;24.40;99.90
32502;DHT22;18952;52.516;13.460;2023-09-08T11:37:12;24.50;99.90
32502;DHT22;18952;52.516;13.460;2023-09-08T11:39:40;24.50;99.90
32502;DHT22;18952;52.516;13.460;2023-09-08T11:42:08;24.60;99.90
32502;DHT22;18952;52.516;13.460;2023-09-08T11:44:37;24.70;99.90
32502;DHT22;18952;52.516;13.460;2023-09-08T11:47:06;24.80;99.90
32502;DHT22;18952;52.516;13.460;2023-09-08T11:49:37;25.00;99.90
32502;DHT22;18952;52.516;13.460;2023-09-08T11:52:05;25.00;99.90
32502;DHT22;18952;52.516;13.460;2023-09-08T11:54:33;25.10;99.60
32502;DHT22;18952;52.516;13.460;2023-09-08T11:57:02;25.10;99.40
32502;DHT22;18952;52.516;13.460;2023-09-08T11:59:32;25.20;99.40
32502;DHT22;18952;52.516;13.460;2023-09-08T12:02:00;25.30;98.80
32502;DHT22;18952;52.516;13.460;2023-09-08T12:04:27;25.40;98.70
32502;DHT22;18952;52.516;13.460;2023-09-08T12:06:55;25.50;98.50
32502;DHT22;18952;52.516;13.460;2023-09-08T12:09:22;25.70;98.40
32502;DHT22;18952;52.516;13.460;2023-09-08T12:11:49;25.80;97.70
32502;DHT22;18952;52.516;13.460;2023-09-08T12:14:16;25.90;97.30
32502;DHT22;18952;52.516;13.460;2023-09-08T12:16:43;26.10;96.80
32502;DHT22;18952;52.516;13.460;2023-09-08T12:19:29;26.20;96.40
32502;DHT22;18952;52.516;13.460;2023-09-08T12:22:01;26.40;96.40
32502;DHT22;18952;52.516;13.460;2023-09-08T12:24:47;26.70;96.00
32502;DHT22;18952;52.516;13.460;2023-09-08T12:27:18;26.90;95.30
32502;DHT22;18952;52.516;13.460;2023-09-08T12:29:59;27.10;94.20
32502;DHT22;18952;52.516;13.460;2023-09-08T12:32:29;27.30;94.00
32502;DHT22;18952;52.516;13.460;2023-09-08T12:34:56;27.60;93.40
32502;DHT22;18952;52.516;13.460;2023-09-08T12:37:25;27.80;92.40
32502;DHT22;18952;52.516;13.460;2023-09-08T12:39:52;28.00;91.70
32502;DHT22;18952;52.516;13.460;2023-09-08T12:42:19;28.20;90.90
32502;DHT22;18952;52.516;13.460;2023-09-08T12:44:47;28.40;90.10
32502;DHT22;18952;52.516;13.460;2023-09-08T12:47:14;28.60;89.50
32502;DHT22;18952;52.516;13.460;2023-09-08T12:49:41;28.80;87.80
32502;DHT22;18952;52.516;13.460;2023-09-08T12:52:08;28.90;86.80
32502;DHT22;18952;52.516;13.460;2023-09-08T12:54:35;29.10;86.70
32502;DHT22;18952;52.516;13.460;2023-09-08T12:57:02;29.30;85.60
32502;DHT22;18952;52.516;13.460;2023-09-08T12:59:32;29.50;83.00
32502;DHT22;18952;52.516;13.460;2023-09-08T13:01:59;29.50;82.20
32502;DHT22;18952;52.516;13.460;2023-09-08T13:04:26;29.60;82.40
32502;DHT22;18952;52.516;13.460;2023-09-08T13:06:53;29.80;82.40
32502;DHT22;18952;52.516;13.460;2023-09-08T13:09:20;29.90;80.40
32502;DHT22;18952;52.516;13.460;2023-09-08T13:11:47;30.10;79.10
32502;DHT22;18952;52.516;13.460;2023-09-08T13:14:13;30.30;77.30
32502;DHT22;18952;52.516;13.460;2023-09-08T13:16:40;30.40;77.60
32502;DHT22;18952;52.516;13.460;2023-09-08T13:19:07;30.60;77.00
32502;DHT22;18952;52.516;13.460;2023-09-08T13:21:34;30.80;76.40
32502;DHT22;18952;52.516;13.460;2023-09-08T13:24:06;31.00;75.30
32502;DHT22;18952;52.516;13.460;2023-09-08T13:26:33;31.00;73.30
32502;DHT22;18952;52.516;13.460;2023-09-08T13:28:59;31.10;73.30
32502;DHT22;18952;52.516;13.460;2023-09-08T13:31:26;31.20;73.10
32502;DHT22;18952;52.516;13.460;2023-09-08T13:33:53;31.40;72.60
32502;DHT22;18952;52.516;13.460;2023-09-08T13:36:20;31.60;71.40
32502;DHT22;18952;52.516;13.460;2023-09-08T13:38:47;31.70;70.70
32502;DHT22;18952;52.516;13.460;2023-09-08T13:41:14;31.90;69.90
32502;DHT22;18952;52.516;13.460;2023-09-08T13:43:40;32.00;69.50
32502;DHT22;18952;52.516;13.460;2023-09-08T13:46:12;32.20;69.00
32502;DHT22;18952;52.516;13.460;2023-09-08T13:48:38;32.40;68.00
32502;DHT22;18952;52.516;13.460;2023-09-08T13:51:08;32.50;67.60
32502;DHT22;18952;52.516;13.460;2023-09-08T13:53:36;32.50;66.40
32502;DHT22;18952;52.516;13.460;2023-09-08T13:56:12;32.40;65.80
32502;DHT22;18952;52.516;13.460;2023-09-08T13:58:41;32.50;65.50
32502;DHT22;18952;52.516;13.460;2023-09-08T14:01:16;32.60;65.50
32502;DHT22;18952;52.516;13.460;2023-09-08T14:03:46;32.70;64.50
32502;DHT22;18952;52.516;13.460;2023-09-08T14:06:16;32.70;64.70
32502;DHT22;18952;52.516;13.460;2023-09-08T14:08:50;32.80;63.90
32502;DHT22;18952;52.516;13.460;2023-09-08T14:11:22;32.90;63.00
32502;DHT22;18952;52.516;13.460;2023-09-08T14:14:01;33.00;63.20
32502;DHT22;18952;52.516;13.460;2023-09-08T14:16:28;33.00;62.90
32502;DHT22;18952;52.516;13.460;2023-09-08T14:18:54;33.10;63.60
32502;DHT22;18952;52.516;13.460;2023-09-08T14:21:21;33.20;63.20
32502;DHT22;18952;52.516;13.460;2023-09-08T14:23:48;33.30;62.50
32502;DHT22;18952;52.516;13.460;2023-09-08T14:26:15;33.40;61.40
32502;DHT22;18952;52.516;13.460;2023-09-08T14:28:42;33.50;61.50
32502;DHT22;18952;52.516;13.460;2023-09-08T14:31:09;33.60;60.90
32502;DHT22;18952;52.516;13.460;2023-09-08T14:33:36;33.60;60.40
32502;DHT22;18952;52.516;13.460;2023-09-08T14:36:04;33.60;60.50
32502;DHT22;18952;52.516;13.460;2023-09-08T14:38:31;33.50;60.30
32502;DHT22;18952;52.516;13.460;2023-09-08T14:40:59;33.60;59.60
32502;DHT22;18952;52.516;13.460;2023-09-08T14:43:28;33.50;59.10
32502;DHT22;18952;52.516;13.460;2023-09-08T14:45:55;33.50;59.00
32502;DHT22;18952;52.516;13.460;2023-09-08T14:48:22;33.40;59.00
32502;DHT22;18952;52.516;13.460;2023-09-08T14:50:49;33.50;58.90
32502;DHT22;18952;52.516;13.460;2023-09-08T14:53:17;33.50;58.60
32502;DHT22;18952;52.516;13.460;2023-09-08T14:55:44;33.50;58.60
32502;DHT22;18952;52.516;13.460;2023-09-08T14:58:11;33.40;58.60
32502;DHT22;18952;52.516;13.460;2023-09-08T15:00:39;33.30;58.50
32502;DHT22;18952;52.516;13.460;2023-09-08T15:03:09;33.30;58.00
32502;DHT22;18952;52.516;13.460;2023-09-08T15:05:36;33.30;58.00
32502;DHT22;18952;52.516;13.460;2023-09-08T15:08:03;33.30;57.70
32502;DHT22;18952;52.516;13.460;2023-09-08T15:10:30;33.30;57.80
32502;DHT22;18952;52.516;13.460;2023-09-08T15:12:57;33.30;57.30
32502;DHT22;18952;52.516;13.460;2023-09-08T15:15:24;33.20;57.50
32502;DHT22;18952;52.516;13.460;2023-09-08T15:17:54;33.10;57.90
32502;DHT22;18952;52.516;13.460;2023-09-08T15:20:21;33.10;58.10
32502;DHT22;18952;52.516;13.460;2023-09-08T15:22:49;33.10;57.80
32502;DHT22;18952;52.516;13.460;2023-09-08T15:25:16;33.00;58.00
32502;DHT22;18952;52.516;13.460;2023-09-08T15:27:42;33.00;58.10